createdAt,value
2018-11-23T00:00:17.564Z,3.98
2018-11-23T00:02:47.030Z,3.96
2018-11-23T00:05:15.749Z,3.92
2018-11-23T00:07:44.777Z,3.88
2018-11-23T00:10:14.990Z,3.87
2018-11-23T00:12:43.937Z,3.83
2018-11-23T00:15:20.260Z,3.81
2018-11-23T00:17:49.253Z,3.78
2018-11-23T00:20:20.164Z,3.74
2018-11-23T00:22:49.086Z,3.71
2018-11-23T00:25:18.969Z,3.69
2018-11-23T00:27:48.290Z,3.68
2018-11-23T00:30:18.951Z,3.68
2018-11-23T00:32:48.209Z,3.68
2018-11-23T00:35:18.538Z,3.71
2018-11-23T00:37:47.716Z,3.71
2018-11-23T00:40:20.618Z,3.74
2018-11-23T00:42:49.599Z,3.76
2018-11-23T00:45:18.297Z,3.78
2018-11-23T00:47:47.789Z,3.80
2018-11-23T00:50:18.021Z,3.81
2018-11-23T00:52:47.124Z,3.83
2018-11-23T00:55:17.025Z,3.88
2018-11-23T00:57:45.717Z,3.92
2018-11-23T01:00:20.335Z,3.96
2018-11-23T01:02:49.042Z,3.99
2018-11-23T01:05:18.501Z,4.02
2018-11-23T01:07:47.851Z,4.04
2018-11-23T01:10:18.137Z,4.08
2018-11-23T01:12:47.954Z,4.10
2018-11-23T01:15:16.676Z,4.11
2018-11-23T01:17:45.395Z,4.12
2018-11-23T01:20:16.976Z,4.14
2018-11-23T01:22:45.929Z,4.16
2018-11-23T01:25:15.794Z,4.15
2018-11-23T01:27:45.403Z,4.15
2018-11-23T01:30:17.535Z,4.13
2018-11-23T01:32:46.341Z,4.12
2018-11-23T01:35:15.629Z,4.08
2018-11-23T01:37:44.348Z,4.04
2018-11-23T01:40:16.148Z,3.99
2018-11-23T01:42:45.269Z,3.98
2018-11-23T01:45:14.464Z,3.98
2018-11-23T01:47:43.269Z,3.99
2018-11-23T01:50:14.872Z,3.97
2018-11-23T01:52:44.501Z,3.94
2018-11-23T01:55:14.138Z,3.90
2018-11-23T01:57:43.318Z,3.88
2018-11-23T02:00:14.573Z,3.87
2018-11-23T02:02:43.656Z,3.84
2018-11-23T02:05:12.401Z,3.82
2018-11-23T02:07:41.125Z,3.80
2018-11-23T02:10:11.256Z,3.76
2018-11-23T02:12:39.969Z,3.76
2018-11-23T02:15:10.394Z,3.73
2018-11-23T02:17:39.113Z,3.71
2018-11-23T02:20:09.485Z,3.70
2018-11-23T02:22:38.267Z,3.67
2018-11-23T02:25:07.284Z,3.65
2018-11-23T02:27:36.292Z,3.62
2018-11-23T02:30:09.813Z,3.61
2018-11-23T02:32:38.740Z,3.58
2018-11-23T02:35:07.464Z,3.56
2018-11-23T02:37:36.185Z,3.53
2018-11-23T02:40:06.663Z,3.52
2018-11-23T02:42:35.380Z,3.50
2018-11-23T02:45:05.829Z,3.49
2018-11-23T02:47:35.881Z,3.48
2018-11-23T02:50:05.452Z,3.45
2018-11-23T02:52:34.158Z,3.43
2018-11-23T02:55:02.889Z,3.41
2018-11-23T02:57:31.717Z,3.39
2018-11-23T03:00:00.444Z,3.36
2018-11-23T03:02:29.160Z,3.35
2018-11-23T03:04:57.868Z,3.30
2018-11-23T03:07:26.823Z,3.23
2018-11-23T03:09:55.614Z,3.21
2018-11-23T03:12:24.317Z,3.18
2018-11-23T03:14:53.052Z,3.15
2018-11-23T03:17:21.958Z,3.13
2018-11-23T03:19:51.238Z,3.10
2018-11-23T03:22:19.935Z,3.06
2018-11-23T03:24:48.649Z,3.03
2018-11-23T03:27:17.381Z,3.01
2018-11-23T03:29:46.165Z,2.93
2018-11-23T03:32:14.989Z,2.88
2018-11-23T03:34:43.865Z,2.86
2018-11-23T03:37:12.569Z,2.86
2018-11-23T03:39:41.285Z,2.86
2018-11-23T03:42:10.632Z,2.90
2018-11-23T03:44:39.320Z,2.91
2018-11-23T03:47:08.046Z,2.91
2018-11-23T03:49:36.776Z,2.91
2018-11-23T03:52:05.485Z,2.92
2018-11-23T03:54:34.249Z,2.93
2018-11-23T03:57:02.950Z,2.92
2018-11-23T03:59:31.653Z,2.92
2018-11-23T04:02:00.729Z,2.90
2018-11-23T04:04:29.448Z,2.89
2018-11-23T04:06:59.209Z,2.86
2018-11-23T04:09:27.921Z,2.83
2018-11-23T04:11:56.625Z,2.80
2018-11-23T04:14:25.394Z,2.79
2018-11-23T04:16:54.109Z,2.76
2018-11-23T04:19:22.969Z,2.73
2018-11-23T04:21:51.695Z,2.70
2018-11-23T04:24:20.462Z,2.68
2018-11-23T04:26:49.168Z,2.66
2018-11-23T04:29:17.902Z,2.65
2018-11-23T04:31:46.635Z,2.60
2018-11-23T04:34:15.372Z,2.59
2018-11-23T04:36:44.078Z,2.55
2018-11-23T04:39:12.803Z,2.53
2018-11-23T04:41:46.282Z,2.53
2018-11-23T04:44:10.211Z,2.54
2018-11-23T04:46:39.085Z,2.53
2018-11-23T04:49:07.838Z,2.54
2018-11-23T04:51:36.561Z,2.52
2018-11-23T04:54:05.672Z,2.53
2018-11-23T04:56:34.377Z,2.51
2018-11-23T04:59:03.647Z,2.50
2018-11-23T05:01:32.584Z,2.51
2018-11-23T05:04:01.296Z,2.50
2018-11-23T05:06:30.072Z,2.48
2018-11-23T05:08:58.784Z,2.43
2018-11-23T05:11:27.484Z,2.39
2018-11-23T05:13:56.188Z,2.34
2018-11-23T05:16:24.917Z,2.27
2018-11-23T05:18:54.143Z,2.23
2018-11-23T05:21:22.859Z,2.21
2018-11-23T05:23:51.549Z,2.20
2018-11-23T05:26:20.493Z,2.18
2018-11-23T05:28:49.560Z,2.16
2018-11-23T05:31:18.267Z,2.15
2018-11-23T05:33:46.949Z,2.14
2018-11-23T05:36:15.657Z,2.15
2018-11-23T05:38:44.673Z,2.13
2018-11-23T05:41:13.382Z,2.11
2018-11-23T05:43:42.122Z,2.11
2018-11-23T05:46:10.955Z,2.10
2018-11-23T05:48:39.664Z,2.09
2018-11-23T05:51:08.361Z,2.08
2018-11-23T05:53:37.448Z,2.07
2018-11-23T05:56:06.296Z,2.08
2018-11-23T05:58:34.989Z,2.07
2018-11-23T06:01:03.710Z,2.06
2018-11-23T06:03:32.397Z,2.03
2018-11-23T06:06:01.350Z,2.02
2018-11-23T06:08:30.293Z,2.01
2018-11-23T06:10:58.990Z,2.00
2018-11-23T06:13:27.937Z,1.99
2018-11-23T06:15:56.645Z,2.00
2018-11-23T06:18:37.585Z,2.00
2018-11-23T06:21:06.284Z,2.01
2018-11-23T06:23:35.001Z,2.00
2018-11-23T06:26:11.872Z,2.01
2018-11-23T06:28:40.532Z,1.99
2018-11-23T06:31:09.229Z,1.96
2018-11-23T06:33:40.225Z,1.91
2018-11-23T06:36:08.938Z,1.86
2018-11-23T06:38:37.871Z,1.81
2018-11-23T06:41:10.524Z,1.77
2018-11-23T06:43:36.370Z,1.73
2018-11-23T06:46:06.541Z,1.69
2018-11-23T06:48:35.246Z,1.66
2018-11-23T06:51:05.278Z,1.62
2018-11-23T06:53:33.968Z,1.59
2018-11-23T06:56:03.135Z,1.56
2018-11-23T06:58:31.814Z,1.55
2018-11-23T07:01:00.513Z,1.56
2018-11-23T07:03:29.317Z,1.55
2018-11-23T07:08:44.641Z,1.54
2018-11-23T07:11:13.608Z,1.48
2018-11-23T07:13:42.322Z,1.47
2018-11-23T07:16:11.024Z,1.46
2018-11-23T07:18:39.993Z,1.47
2018-11-23T07:21:08.731Z,1.46
2018-11-23T07:23:37.421Z,1.45
2018-11-23T07:26:06.236Z,1.45
2018-11-23T07:28:35.221Z,1.45
2018-11-23T07:31:04.748Z,1.45
2018-11-23T07:33:33.481Z,1.47
2018-11-23T07:36:02.197Z,1.50
2018-11-23T07:38:30.907Z,1.52
2018-11-23T07:41:11.008Z,1.52
2018-11-23T07:43:39.720Z,1.47
2018-11-23T07:46:08.437Z,1.45
2018-11-23T07:48:37.152Z,1.44
2018-11-23T07:51:06.008Z,1.46
2018-11-23T07:53:34.720Z,1.49
2018-11-23T07:56:03.417Z,1.51
2018-11-23T07:58:32.133Z,1.53
2018-11-23T08:01:00.842Z,1.56
2018-11-23T08:03:29.548Z,1.56
2018-11-23T08:05:58.286Z,1.60
2018-11-23T08:08:27.001Z,1.62
2018-11-23T08:10:54.913Z,1.63
2018-11-23T08:13:23.672Z,1.65
2018-11-23T08:15:52.385Z,1.65
2018-11-23T08:18:21.093Z,1.69
2018-11-23T08:20:49.789Z,1.75
2018-11-23T08:23:18.522Z,1.83
2018-11-23T08:25:47.217Z,1.86
2018-11-23T08:28:16.233Z,1.92
2018-11-23T08:30:44.940Z,1.93
2018-11-23T08:33:13.652Z,1.95
2018-11-23T08:35:42.361Z,1.99
2018-11-23T08:38:11.081Z,2.05
2018-11-23T08:40:39.817Z,2.08
2018-11-23T08:43:08.521Z,2.16
2018-11-23T08:45:37.230Z,2.21
2018-11-23T08:48:05.940Z,2.24
2018-11-23T08:50:34.649Z,2.27
2018-11-23T08:53:03.352Z,2.33
2018-11-23T08:55:32.096Z,2.35
2018-11-23T08:58:00.810Z,2.41
2018-11-23T09:00:29.597Z,2.47
2018-11-23T09:02:59.730Z,2.57
2018-11-23T09:05:28.461Z,2.65
2018-11-23T09:07:57.572Z,2.69
2018-11-23T09:10:27.706Z,2.75
2018-11-23T09:12:57.980Z,2.77
2018-11-23T09:15:26.711Z,2.82
2018-11-23T09:17:55.493Z,2.86
2018-11-23T09:20:24.137Z,2.86
2018-11-23T09:22:52.836Z,2.91
2018-11-23T09:25:22.516Z,2.93
2018-11-23T09:27:51.430Z,2.99
2018-11-23T09:30:22.418Z,2.99
2018-11-23T09:32:51.890Z,2.98
2018-11-23T09:35:20.711Z,3.00
2018-11-23T09:37:49.576Z,3.04
2018-11-23T09:40:22.542Z,3.09
2018-11-23T09:42:51.374Z,3.16
2018-11-23T09:45:22.652Z,3.16
2018-11-23T09:47:52.870Z,3.20
2018-11-23T09:50:22.593Z,3.22
2018-11-23T09:52:52.442Z,3.28
2018-11-23T09:55:21.747Z,3.34
2018-11-23T09:57:50.446Z,3.40
2018-11-23T10:00:20.487Z,3.44
2018-11-23T10:02:50.105Z,3.49
2018-11-23T10:05:19.206Z,3.56
2018-11-23T10:07:49.243Z,3.63
2018-11-23T10:10:18.912Z,3.70
2018-11-23T10:12:47.633Z,3.78
2018-11-23T10:15:17.324Z,3.81
2018-11-23T10:17:46.032Z,3.87
2018-11-23T10:20:20.529Z,3.91
2018-11-23T10:22:49.241Z,3.98
2018-11-23T10:25:19.384Z,4.03
2018-11-23T10:27:48.313Z,4.10
2018-11-23T10:30:20.257Z,4.17
2018-11-23T10:32:50.045Z,4.23
2018-11-23T10:35:18.757Z,4.32
2018-11-23T10:37:49.069Z,4.40
2018-11-23T10:40:19.137Z,4.49
2018-11-23T10:42:47.869Z,4.57
2018-11-23T10:45:18.349Z,4.63
2018-11-23T10:47:47.882Z,4.68
2018-11-23T10:50:18.621Z,4.73
2018-11-23T10:52:46.670Z,4.78
2018-11-23T10:55:17.518Z,4.83
2018-11-23T10:57:46.316Z,4.86
2018-11-23T11:00:21.748Z,4.91
2018-11-23T11:04:57.886Z,4.98
2018-11-23T11:07:26.605Z,5.06
2018-11-23T11:09:55.308Z,5.12
2018-11-23T11:12:24.032Z,5.19
2018-11-23T11:14:53.044Z,5.28
2018-11-23T11:17:21.809Z,5.35
2018-11-23T11:19:50.525Z,5.43
2018-11-23T11:22:19.240Z,5.47
2018-11-23T11:24:47.937Z,5.53
2018-11-23T11:27:16.741Z,5.60
2018-11-23T11:29:45.527Z,5.68
2018-11-23T11:32:14.236Z,5.74
2018-11-23T11:34:42.953Z,5.81
2018-11-23T11:37:11.660Z,5.87
2018-11-23T11:39:40.384Z,5.97
2018-11-23T11:42:09.432Z,6.07
2018-11-23T11:44:38.133Z,6.14
2018-11-23T11:47:06.961Z,6.24
2018-11-23T11:49:35.664Z,6.36
2018-11-23T11:52:05.654Z,6.44
2018-11-23T11:54:34.353Z,6.55
2018-11-23T11:57:03.181Z,6.60
2018-11-23T11:59:32.367Z,6.69
2018-11-23T12:02:01.070Z,6.74
2018-11-23T12:04:29.780Z,6.79
2018-11-23T12:06:58.508Z,6.82
2018-11-23T12:09:27.319Z,6.84
2018-11-23T12:11:56.022Z,6.89
2018-11-23T12:14:25.076Z,6.94
2018-11-23T12:16:53.837Z,6.93
2018-11-23T12:19:22.540Z,6.94
2018-11-23T12:21:51.497Z,6.96
2018-11-23T12:24:20.304Z,6.98
2018-11-23T12:26:49.008Z,6.98
2018-11-23T12:29:17.739Z,6.95
2018-11-23T12:31:46.440Z,6.98
2018-11-23T12:34:15.149Z,6.98
2018-11-23T12:36:43.856Z,7.01
2018-11-23T12:39:12.733Z,7.01
2018-11-23T12:41:41.433Z,7.03
2018-11-23T12:44:10.534Z,7.04
2018-11-23T12:46:39.244Z,7.05
2018-11-23T12:49:07.973Z,7.06
2018-11-23T12:51:36.672Z,7.05
2018-11-23T12:54:06.177Z,7.04
2018-11-23T12:56:34.900Z,7.04
2018-11-23T12:59:04.924Z,7.04
2018-11-23T13:01:34.268Z,7.04
2018-11-23T13:04:03.005Z,7.03
2018-11-23T13:06:31.754Z,7.04
2018-11-23T13:09:00.469Z,7.07
2018-11-23T13:11:29.173Z,7.12
2018-11-23T13:13:57.882Z,7.13
2018-11-23T13:16:26.587Z,7.14
2018-11-23T13:18:55.384Z,7.17
2018-11-23T13:21:24.341Z,7.18
2018-11-23T13:23:53.046Z,7.20
2018-11-23T13:26:21.745Z,7.24
2018-11-23T13:28:50.519Z,7.28
2018-11-23T13:31:19.200Z,7.30
2018-11-23T13:33:47.920Z,7.33
2018-11-23T13:36:16.641Z,7.37
2018-11-23T13:38:45.354Z,7.36
2018-11-23T13:41:14.060Z,7.35
2018-11-23T13:43:42.777Z,7.38
2018-11-23T13:46:11.484Z,7.39
2018-11-23T13:48:40.191Z,7.41
2018-11-23T13:51:08.913Z,7.40
2018-11-23T13:53:37.615Z,7.43
2018-11-23T13:56:06.661Z,7.43
2018-11-23T13:58:35.403Z,7.44
2018-11-23T14:01:04.953Z,7.43
2018-11-23T14:03:34.625Z,7.43
2018-11-23T14:06:02.371Z,7.44
2018-11-23T14:08:31.121Z,7.42
2018-11-23T14:10:59.840Z,7.40
2018-11-23T14:13:28.552Z,7.40
2018-11-23T14:15:57.283Z,7.41
2018-11-23T14:18:26.001Z,7.37
2018-11-23T14:20:54.716Z,7.37
2018-11-23T14:23:23.444Z,7.36
2018-11-23T14:25:52.213Z,7.35
2018-11-23T14:28:21.001Z,7.36
2018-11-23T14:30:49.737Z,7.35
2018-11-23T14:33:18.448Z,7.35
2018-11-23T14:35:47.165Z,7.35
2018-11-23T14:38:15.864Z,7.32
2018-11-23T14:40:50.088Z,7.30
2018-11-23T14:43:18.961Z,7.29
2018-11-23T14:45:47.678Z,7.28
2018-11-23T14:48:16.404Z,7.26
2018-11-23T14:50:48.519Z,7.25
2018-11-23T14:53:17.308Z,7.20
2018-11-23T14:55:45.997Z,7.18
2018-11-23T14:58:14.752Z,7.13
2018-11-23T15:00:43.536Z,7.11
2018-11-23T15:03:12.246Z,7.08
2018-11-23T15:05:40.937Z,7.06
2018-11-23T15:08:09.911Z,7.04
2018-11-23T15:10:38.612Z,7.09
2018-11-23T15:13:07.624Z,7.11
2018-11-23T15:15:38.232Z,7.07
2018-11-23T15:18:07.693Z,7.04
2018-11-23T15:20:39.820Z,7.03
2018-11-23T15:23:10.973Z,7.00
2018-11-23T15:25:40.028Z,6.99
2018-11-23T15:28:09.565Z,6.97
2018-11-23T15:30:39.231Z,6.91
2018-11-23T15:33:08.953Z,6.89
2018-11-23T15:35:38.433Z,6.86
2018-11-23T15:38:10.335Z,6.85
2018-11-23T15:40:38.432Z,6.82
2018-11-23T15:43:08.930Z,6.77
2018-11-23T15:45:37.934Z,6.75
2018-11-23T15:48:07.313Z,6.73
2018-11-23T15:50:37.318Z,6.67
2018-11-23T15:53:07.350Z,6.67
2018-11-23T15:55:36.641Z,6.67
2018-11-23T15:58:07.132Z,6.66
2018-11-23T16:00:38.252Z,6.65
2018-11-23T16:03:08.394Z,6.63
2018-11-23T16:05:37.232Z,6.62
2018-11-23T16:08:08.718Z,6.58
2018-11-23T16:10:38.196Z,6.56
2018-11-23T16:13:11.490Z,6.54
2018-11-23T16:15:37.473Z,6.53
2018-11-23T16:18:06.795Z,6.53
2018-11-23T16:20:37.771Z,6.52
2018-11-23T16:23:08.357Z,6.47
2018-11-23T16:25:37.120Z,6.46
2018-11-23T16:28:07.046Z,6.46
2018-11-23T16:30:37.480Z,6.46
2018-11-23T16:33:07.841Z,6.45
2018-11-23T16:35:38.075Z,6.45
2018-11-23T16:38:08.708Z,6.44
2018-11-23T16:40:38.925Z,6.44
2018-11-23T16:43:09.107Z,6.46
2018-11-23T16:45:38.589Z,6.44
2018-11-23T16:48:08.425Z,6.45
2018-11-23T16:50:37.244Z,6.45
2018-11-23T16:53:15.873Z,6.44
2018-11-23T16:55:44.701Z,6.46
2018-11-23T16:58:14.177Z,6.45
2018-11-23T17:01:01.193Z,6.46
2018-11-23T17:03:29.919Z,6.45
2018-11-23T17:05:58.617Z,6.42
2018-11-23T17:08:27.326Z,6.38
2018-11-23T17:10:56.044Z,6.37
2018-11-23T17:13:24.740Z,6.38
2018-11-23T17:15:53.512Z,6.40
2018-11-23T17:18:22.360Z,6.38
2018-11-23T17:20:51.348Z,6.36
2018-11-23T17:23:20.092Z,6.35
2018-11-23T17:25:48.810Z,6.36
2018-11-23T17:28:17.505Z,6.36
2018-11-23T17:31:05.064Z,6.37
2018-11-23T17:33:33.985Z,6.35
2018-11-23T17:36:02.689Z,6.36
2018-11-23T17:38:37.611Z,6.37
2018-11-23T17:41:00.878Z,6.38
2018-11-23T17:43:29.616Z,6.31
2018-11-23T17:45:58.777Z,6.28
2018-11-23T17:48:28.419Z,6.27
2018-11-23T17:50:58.619Z,6.23
2018-11-23T17:53:27.338Z,6.19
2018-11-23T17:55:56.096Z,6.19
2018-11-23T17:58:24.827Z,6.20
2018-11-23T18:00:53.938Z,6.18
2018-11-23T18:03:22.648Z,6.15
2018-11-23T18:05:51.352Z,6.16
2018-11-23T18:08:20.091Z,6.14
2018-11-23T18:10:48.828Z,6.14
2018-11-23T18:13:17.555Z,6.10
2018-11-23T18:15:46.269Z,6.09
2018-11-23T18:18:15.365Z,6.05
2018-11-23T18:20:44.373Z,6.04
2018-11-23T18:23:13.085Z,6.01
2018-11-23T18:25:42.142Z,5.96
2018-11-23T18:28:10.884Z,5.92
2018-11-23T18:30:39.613Z,5.93
2018-11-23T18:33:09.823Z,5.94
2018-11-23T18:35:38.521Z,5.95
2018-11-23T18:38:07.223Z,5.92
2018-11-23T18:40:37.278Z,5.87
2018-11-23T18:43:05.234Z,5.82
2018-11-23T18:45:33.985Z,5.80
2018-11-23T18:48:02.689Z,5.78
2018-11-23T18:50:31.400Z,5.77
2018-11-23T18:53:00.115Z,5.79
2018-11-23T18:55:28.823Z,5.78
2018-11-23T18:57:57.906Z,5.78
2018-11-23T19:00:26.622Z,5.75
2018-11-23T19:02:55.333Z,5.72
2018-11-23T19:05:26.686Z,5.73
2018-11-23T19:07:55.425Z,5.69
2018-11-23T19:10:24.132Z,5.66
2018-11-23T19:12:52.856Z,5.62
2018-11-23T19:15:25.410Z,5.60
2018-11-23T19:17:50.445Z,5.57
2018-11-23T19:20:20.370Z,5.57
2018-11-23T19:22:51.072Z,5.50
2018-11-23T19:25:19.817Z,5.44
2018-11-23T19:27:48.539Z,5.42
2018-11-23T19:30:18.469Z,5.39
2018-11-23T19:32:47.569Z,5.36
2018-11-23T19:35:16.279Z,5.29
2018-11-23T19:37:45.262Z,5.28
2018-11-23T19:40:14.835Z,5.26
2018-11-23T19:42:44.435Z,5.25
2018-11-23T19:51:12.197Z,5.10
2018-11-23T19:53:40.913Z,5.08
2018-11-23T19:56:09.657Z,5.07
2018-11-23T19:58:38.844Z,5.07
2018-11-23T20:01:07.589Z,5.04
2018-11-23T20:03:36.278Z,4.99
2018-11-23T20:06:05.168Z,4.96
2018-11-23T20:08:40.405Z,4.91
2018-11-23T20:11:09.351Z,4.90
2018-11-23T20:13:38.085Z,4.87
2018-11-23T20:16:06.806Z,4.83
2018-11-23T20:18:35.509Z,4.80
2018-11-23T20:21:04.756Z,4.78
2018-11-23T20:23:33.630Z,4.74
2018-11-23T20:26:02.337Z,4.70
2018-11-23T20:28:31.069Z,4.66
2018-11-23T20:31:00.000Z,4.61
2018-11-23T20:33:28.701Z,4.55
2018-11-23T20:35:57.440Z,4.53
2018-11-23T20:38:26.178Z,4.47
2018-11-23T20:40:54.892Z,4.45
2018-11-23T20:43:23.627Z,4.44
2018-11-23T20:45:52.343Z,4.38
2018-11-23T20:48:21.044Z,4.33
2018-11-23T20:50:49.786Z,4.31
2018-11-23T20:53:18.501Z,4.26
2018-11-23T20:55:47.208Z,4.28
2018-11-23T20:58:16.291Z,4.26
2018-11-23T21:00:45.490Z,4.23
2018-11-23T21:03:14.182Z,4.19
2018-11-23T21:05:42.933Z,4.18
2018-11-23T21:08:11.625Z,4.16
2018-11-23T21:10:40.332Z,4.14
2018-11-23T21:13:09.028Z,4.08
2018-11-23T21:15:37.736Z,4.01
2018-11-23T21:18:06.950Z,3.99
2018-11-23T21:20:35.676Z,3.97
2018-11-23T21:23:04.853Z,3.92
2018-11-23T21:25:33.570Z,3.91
2018-11-23T21:28:02.266Z,3.91
2018-11-23T21:30:31.059Z,3.90
2018-11-23T21:32:59.756Z,3.87
2018-11-23T21:35:28.517Z,3.85
2018-11-23T21:37:57.225Z,3.81
2018-11-23T21:40:33.516Z,3.77
2018-11-23T21:43:02.218Z,3.76
2018-11-23T21:45:30.933Z,3.68
2018-11-23T21:48:00.905Z,3.68
2018-11-23T21:50:29.649Z,3.63
2018-11-23T21:52:58.376Z,3.60
2018-11-23T21:55:27.104Z,3.57
2018-11-23T21:57:56.570Z,3.52
2018-11-23T22:00:25.285Z,3.51
2018-11-23T22:02:54.364Z,3.50
2018-11-23T22:05:23.228Z,3.50
2018-11-23T22:07:51.959Z,3.50
2018-11-23T22:10:20.940Z,3.47
2018-11-23T22:12:50.590Z,3.47
2018-11-23T22:15:21.463Z,3.45
2018-11-23T22:17:51.254Z,3.44
2018-11-23T22:20:21.079Z,3.41
2018-11-23T22:22:49.875Z,3.38
2018-11-23T22:25:19.887Z,3.36
2018-11-23T22:27:48.793Z,3.36
2018-11-23T22:30:23.205Z,3.36
2018-11-23T22:32:51.994Z,3.36
2018-11-23T22:35:20.981Z,3.35
2018-11-23T22:37:50.098Z,3.36
2018-11-23T22:40:19.865Z,3.35
2018-11-23T22:42:49.690Z,3.30
2018-11-23T22:45:18.416Z,3.27
2018-11-23T22:47:49.110Z,3.21
2018-11-23T22:50:19.964Z,3.20
2018-11-23T22:52:48.717Z,3.13
2018-11-23T22:55:18.130Z,3.17
2018-11-23T22:57:46.884Z,3.18
2018-11-23T23:00:23.617Z,3.22
2018-11-23T23:02:52.349Z,3.28
2018-11-23T23:05:22.414Z,3.21
2018-11-23T23:07:51.397Z,3.22
2018-11-23T23:10:20.398Z,3.22
2018-11-23T23:12:49.731Z,3.24
2018-11-23T23:15:18.665Z,3.22
2018-11-23T23:17:47.395Z,3.22
2018-11-23T23:20:17.301Z,3.23
2018-11-23T23:22:46.042Z,3.25
2018-11-23T23:25:14.774Z,3.25
2018-11-23T23:27:43.652Z,3.29
2018-11-23T23:30:13.702Z,3.33
2018-11-23T23:32:42.481Z,3.28
2018-11-23T23:35:12.133Z,3.26
2018-11-23T23:37:41.288Z,3.26
2018-11-23T23:40:11.147Z,3.30
2018-11-23T23:42:39.843Z,3.31
2018-11-23T23:45:11.636Z,3.30
2018-11-23T23:47:40.373Z,3.25
2018-11-23T23:50:14.115Z,3.31
2018-11-23T23:52:42.865Z,3.30
2018-11-23T23:55:11.606Z,3.31
2018-11-23T23:57:41.309Z,3.33
